Time;durP1;ratioP1;P1;durP2;ratioP2;P2;SDS_P1;SDS_P2;PMS_P1;PMS_P2;Temp;Humidity;BMP_temperature;BMP_pressure;BME280_temperature;BME280_humidity;BME280_pressure;Samples;Min_cycle;Max_cycle;Signal;HPM_P1;HPM_P2
2022/11/02 00:01:11;;;;;;;12.40;2.55;;;12.80;99.90;;;;;;5116312;28;20444;-78
2022/11/02 00:03:37;;;;;;;12.63;2.40;;;;;;;;;;5090594;28;20421;-78
2022/11/02 00:06:04;;;;;;;11.50;2.30;;;;;;;;;;5088922;28;20465;-78
2022/11/02 00:08:30;;;;;;;9.85;2.28;;;;;;;;;;5063439;28;20692;-79
2022/11/02 00:10:56;;;;;;;9.05;2.30;;;;;;;;;;5096784;28;20433;-79
2022/11/02 00:13:25;;;;;;;8.77;2.30;;;;;;;;;;5088508;28;20408;-78
2022/11/02 00:15:51;;;;;;;8.40;2.13;;;;;;;;;;5087355;28;20429;-78
2022/11/02 00:18:17;;;;;;;10.90;2.10;;;;;;;;;;5062150;28;20437;-78
2022/11/02 00:21:24;;;;;;;8.40;1.97;;;;;;;;;;5129614;27;20348;-78
2022/11/02 00:23:50;;;;;;;7.47;2.23;;;;;;;;;;5123532;27;20423;-78
2022/11/02 00:26:17;;;;;;;7.25;1.77;;;;;;;;;;5109194;28;20405;-79
2022/11/02 00:28:43;;;;;;;7.80;2.10;;;;;;;;;;5092727;28;20460;-78
2022/11/02 00:31:09;;;;;;;8.65;1.98;;;;;;;;;;5091993;28;20420;-77
2022/11/02 00:33:35;;;;;;;8.73;2.50;;;;;;;;;;5118883;28;20417;-78
2022/11/02 00:36:01;;;;;;;7.30;2.20;;;;;;;;;;5090679;28;20892;-78
2022/11/02 00:38:27;;;;;;;6.95;2.00;;;;;;;;;;5091504;28;20421;-79
2022/11/02 00:40:53;;;;;;;6.43;1.90;;;;;;;;;;5107975;28;20429;-78
2022/11/02 00:43:19;;;;;;;8.30;1.90;;;;;;;;;;5086201;28;20758;-78
2022/11/02 00:45:45;;;;;;;5.85;1.65;;;;;;;;;;5096287;28;20432;-78
2022/11/02 00:48:12;;;;;;;6.15;1.70;;;;;;;;;;5109419;28;20446;-79
2022/11/02 00:50:38;;;;;;;4.97;1.80;;;;;;;;;;5090954;28;20878;-78
2022/11/02 00:53:04;;;;;;;5.43;1.47;;;;;;;;;;5128271;28;20409;-78
2022/11/02 00:55:30;;;;;;;5.45;1.55;;;;;;;;;;5098151;28;20413;-77
2022/11/02 00:57:57;;;;;;;6.95;1.83;;;;;;;;;;5107366;28;20890;-78
2022/11/02 01:00:23;;;;;;;8.48;1.58;;;;;;;;;;5093315;28;20423;-78
2022/11/02 01:02:49;;;;;;;5.87;1.70;;;;;;;;;;5128019;28;20464;-77
2022/11/02 01:05:15;;;;;;;5.93;1.52;;;11.50;99.90;;;;;;5091006;28;20407;-77
2022/11/02 01:07:41;;;;;;;4.22;1.40;;;;;;;;;;5070069;28;20603;-76
2022/11/02 01:10:07;;;;;;;5.45;1.45;;;;;;;;;;5111749;28;20421;-76
2022/11/02 01:12:39;;;;;;;4.65;1.50;;;11.20;99.90;;;;;;5076028;28;20590;-77
2022/11/02 01:15:09;;;;;;;3.80;1.37;;;;;;;;;;5109791;28;20500;-77
2022/11/02 01:17:36;;;;;;;6.03;1.40;;;11.30;99.90;;;;;;5090758;28;20402;-76
2022/11/02 01:20:03;;;;;;;5.03;1.55;;;11.40;99.90;;;;;;5090823;28;20420;-77
2022/11/02 01:22:29;;;;;;;3.78;1.23;;;;;;;;;;5129714;27;20425;-76
2022/11/02 01:24:55;;;;;;;4.63;1.23;;;;;;;;;;5092607;28;20523;-76
2022/11/02 01:27:21;;;;;;;4.63;1.35;;;;;;;;;;5090918;28;20413;-76
2022/11/02 01:29:47;;;;;;;4.68;1.40;;;;;;;;;;5089542;28;20459;-77
2022/11/02 01:32:13;;;;;;;3.38;1.10;;;;;;;;;;5096152;28;20414;-76
2022/11/02 01:34:39;;;;;;;3.42;1.38;;;;;;;;;;5066980;28;20453;-76
2022/11/02 01:37:05;;;;;;;2.75;1.25;;;;;;;;;;5076993;28;20414;-76
2022/11/02 01:39:31;;;;;;;4.05;1.10;;;;;;;;;;5092616;28;20479;-76
2022/11/02 01:42:00;;;;;;;5.72;1.40;;;;;;;;;;5085490;28;20419;-76
2022/11/02 01:44:26;;;;;;;4.00;1.45;;;;;;;;;;5090848;28;20424;-76
2022/11/02 01:46:55;;;;;;;3.08;1.25;;;11.30;99.90;;;;;;5100102;28;20957;-76
2022/11/02 01:49:21;;;;;;;5.25;1.55;;;;;;;;;;5075746;28;20426;-76
2022/11/02 01:51:54;;;;;;;8.15;1.70;;;;;;;;;;5092772;28;20917;-76
2022/11/02 01:54:25;;;;;;;6.28;1.80;;;;;;;;;;5094362;28;20431;-76
2022/11/02 01:56:53;;;;;;;6.10;1.83;;;;;;;;;;5102116;28;20990;-76
2022/11/02 01:59:25;;;;;;;6.55;1.98;;;11.40;99.90;;;;;;5091820;28;20455;-76
2022/11/02 02:01:51;;;;;;;5.75;2.00;;;;;;;;;;5092540;28;20467;-77
2022/11/02 02:04:18;;;;;;;5.97;2.13;;;;;;;;;;5076089;28;20413;-77
2022/11/02 02:06:44;;;;;;;8.27;2.67;;;;;;;;;;5090720;28;20458;-76
2022/11/02 02:09:11;;;;;;;8.85;2.35;;;;;;;;;;5087431;28;20425;-77
2022/11/02 02:11:38;;;;;;;5.55;2.25;;;;;;;;;;5093146;28;20410;-77
2022/11/02 02:14:08;;;;;;;6.63;2.20;;;11.20;99.90;;;;;;5094130;28;20412;-77
2022/11/02 02:16:40;;;;;;;6.80;2.20;;;;;;;;;;5092019;28;20420;-76
2022/11/02 02:19:39;;;;;;;6.45;2.22;;;11.10;99.90;;;;;;5097337;27;20737;-76
2022/11/02 02:22:24;;;;;;;8.00;2.50;;;;;;;;;;5098011;27;20436;-76
2022/11/02 02:25:17;;;;;;;7.25;2.63;;;11.00;99.90;;;;;;5095872;28;20790;-77
2022/11/02 02:28:01;;;;;;;8.80;2.70;;;11.40;99.90;;;;;;5089504;27;20475;-76
2022/11/02 02:30:28;;;;;;;10.95;2.90;;;;;;;;;;5103764;27;20451;-76
2022/11/02 02:32:54;;;;;;;9.40;3.10;;;;;;;;;;5097392;27;20469;-76
2022/11/02 02:35:34;;;;;;;10.80;2.90;;;11.30;99.90;;;;;;5090872;28;20420;-75
2022/11/02 02:38:02;;;;;;;10.18;2.58;;;11.30;99.90;;;;;;5080004;28;20444;-76
2022/11/02 02:40:36;;;;;;;8.98;2.97;;;10.90;99.90;;;;;;5078583;28;20423;-75
2022/11/02 02:43:17;;;;;;;8.43;2.60;;;11.40;99.90;;;;;;5109145;27;20820;-76
2022/11/02 02:45:45;;;;;;;6.33;2.50;;;;;;;;;;5110360;27;20417;-77
2022/11/02 02:48:20;;;;;;;7.63;2.05;;;11.00;99.90;;;;;;5098074;28;20499;-77
2022/11/02 02:50:50;;;;;;;5.47;1.50;;;;;;;;;;5080182;28;20940;-77
2022/11/02 02:53:23;;;;;;;4.43;1.20;;;11.30;99.90;;;;;;5087588;27;20421;-76
2022/11/02 02:55:50;;;;;;;4.35;1.30;;;;;;;;;;5106867;28;20416;-76
2022/11/02 02:58:39;;;;;;;3.83;1.30;;;;;;;;;;5078774;28;20416;-76
2022/11/02 03:01:06;;;;;;;4.43;1.52;;;;;;;;;;5079869;27;20501;-77
2022/11/02 03:03:33;;;;;;;4.88;1.38;;;11.40;99.90;;;;;;5102382;28;20420;-77
2022/11/02 03:06:07;;;;;;;5.13;1.20;;;11.30;99.90;;;;;;5106721;28;20420;-77
2022/11/02 03:08:37;;;;;;;5.40;1.30;;;11.20;99.90;;;;;;5094980;28;20900;-77
2022/11/02 03:11:14;;;;;;;4.18;0.98;;;;;;;;;;5102755;27;20414;-76
2022/11/02 03:13:43;;;;;;;3.85;1.10;;;;;;;;;;5082630;28;20946;-76
2022/11/02 03:16:15;;;;;;;4.57;1.10;;;;;;;;;;5077700;28;20479;-77
2022/11/02 03:18:47;;;;;;;5.57;1.15;;;;;;;;;;5078584;28;20412;-75
2022/11/02 03:21:19;;;;;;;6.25;1.33;;;;;;;;;;5096899;28;20935;-77
2022/11/02 03:24:01;;;;;;;5.22;1.38;;;;;;;;;;5105450;27;20824;-76
2022/11/02 03:26:30;;;;;;;7.18;1.52;;;;;;;;;;5082258;28;20900;-77
2022/11/02 03:29:12;;;;;;;4.90;1.20;;;;;;;;;;5090045;27;20414;-77
2022/11/02 03:31:45;;;;;;;5.38;1.60;;;;;;;;;;5107535;27;20418;-77
2022/11/02 03:35:19;;;;;;;7.43;1.83;;;;;;;;;;5089094;27;20349;-77
2022/11/02 03:38:00;;;;;;;7.28;1.42;;;11.10;99.90;;;;;;5068558;28;20407;-77
2022/11/02 03:40:28;;;;;;;8.57;1.70;;;;;;;;;;5071063;28;20418;-76
2022/11/02 03:42:56;;;;;;;7.25;1.65;;;11.00;99.90;;;;;;5068421;28;20490;-76
2022/11/02 03:45:26;;;;;;;6.45;1.65;;;11.00;99.90;;;;;;5086693;28;20399;-77
2022/11/02 03:47:55;;;;;;;9.10;1.80;;;;;;;;;;5099353;28;20917;-77
2022/11/02 03:50:22;;;;;;;11.57;1.92;;;;;;;;;;5116949;27;20423;-77
2022/11/02 03:52:53;;;;;;;8.73;1.67;;;;;;;;;;5070601;28;20910;-78
2022/11/02 03:55:23;;;;;;;9.00;1.70;;;;;;;;;;5085523;28;20922;-77
2022/11/02 03:57:51;;;;;;;8.02;1.85;;;11.10;99.90;;;;;;5069388;28;20445;-77
2022/11/02 04:00:24;;;;;;;8.10;1.95;;;11.10;99.90;;;;;;5085057;28;20430;-78
2022/11/02 04:02:52;;;;;;;7.72;1.77;;;;;;;;;;5069360;28;20415;-77
2022/11/02 04:05:19;;;;;;;8.68;1.73;;;;;;;;;;5069425;28;20419;-78
2022/11/02 04:10:32;;;;;;;10.73;2.13;;;;;;;;;;5084465;28;20419;-77
2022/11/02 04:15:43;;;;;;;8.38;1.60;;;;;;;;;;5066756;28;20407;-75
2022/11/02 04:20:53;;;;;;;8.18;1.63;;;;;;;;;;5084178;28;20422;-76
2022/11/02 04:26:04;;;;;;;8.57;2.22;;;;;;;;;;5085502;28;20505;-77
2022/11/02 04:28:30;;;;;;;7.33;1.80;;;;;;;;;;5088882;28;20419;-77
2022/11/02 04:30:59;;;;;;;8.57;1.95;;;;;;;;;;5050309;28;20940;-77
2022/11/02 04:33:32;;;;;;;8.25;1.88;;;11.00;99.90;;;;;;5072905;28;20421;-77
2022/11/02 04:36:03;;;;;;;9.43;1.63;;;11.10;99.90;;;;;;5089949;28;20402;-77
2022/11/02 04:38:42;;;;;;;7.60;1.73;;;;;;;;;;5087056;28;20420;-78
2022/11/02 04:43:52;;;;;;;9.02;1.80;;;;;;;;;;5101299;28;20429;-77
2022/11/02 04:46:19;;;;;;;9.32;2.10;;;;;;;;;;5078255;28;20402;-77
2022/11/02 04:48:45;;;;;;;8.18;2.13;;;;;;;;;;5073763;28;20429;-77
2022/11/02 04:51:11;;;;;;;7.82;2.00;;;;;;;;;;5072941;28;20453;-77
2022/11/02 04:53:37;;;;;;;9.80;1.98;;;;;;;;;;5089966;28;20424;-77
2022/11/02 04:56:03;;;;;;;8.43;2.10;;;;;;;;;;5091929;28;20429;-78
2022/11/02 04:58:29;;;;;;;11.00;2.33;;;;;;;;;;5091064;28;20751;-77
2022/11/02 05:00:56;;;;;;;7.33;1.90;;;;;;;;;;5091274;28;20425;-78
2022/11/02 05:03:22;;;;;;;8.38;2.08;;;;;;;;;;5090962;28;20431;-77
2022/11/02 05:05:48;;;;;;;10.38;2.70;;;;;;;;;;5091852;28;20921;-76
2022/11/02 05:08:14;;;;;;;12.40;2.70;;;;;;;;;;5099880;28;20484;-77
2022/11/02 05:10:40;;;;;;;10.77;2.47;;;;;;;;;;5044108;28;20509;-77
2022/11/02 05:13:06;;;;;;;13.35;2.80;;;;;;;;;;5073963;28;20426;-77
2022/11/02 05:15:32;;;;;;;10.57;2.72;;;;;;;;;;5074364;28;20413;-77
2022/11/02 05:17:58;;;;;;;12.40;3.20;;;;;;;;;;5090812;28;20431;-76
2022/11/02 05:20:24;;;;;;;14.02;3.20;;;;;;;;;;5070469;28;20453;-75
2022/11/02 05:22:50;;;;;;;10.57;2.92;;;;;;;;;;5073530;28;20421;-77
2022/11/02 05:25:16;;;;;;;10.65;3.08;;;;;;;;;;5070771;28;20917;-78
2022/11/02 05:27:42;;;;;;;11.82;3.03;;;;;;;;;;5072394;28;20418;-77
2022/11/02 05:30:09;;;;;;;10.23;3.00;;;;;;;;;;5089605;28;20909;-78
2022/11/02 05:32:35;;;;;;;9.93;2.80;;;;;;;;;;5087666;28;20416;-77
2022/11/02 05:35:01;;;;;;;9.85;2.80;;;;;;;;;;5088445;28;20456;-77
2022/11/02 05:37:27;;;;;;;11.10;2.78;;;;;;;;;;5095370;28;20425;-76
2022/11/02 05:39:53;;;;;;;12.02;3.20;;;;;;;;;;5076813;28;20419;-76
2022/11/02 05:42:19;;;;;;;9.63;3.35;;;;;;;;;;5088159;28;20422;-76
2022/11/02 05:44:45;;;;;;;8.23;2.83;;;;;;;;;;5064285;28;20445;-76
2022/11/02 05:47:11;;;;;;;13.55;2.92;;;;;;;;;;5076014;28;20431;-76
2022/11/02 05:49:37;;;;;;;13.33;3.00;;;;;;;;;;5072695;28;20487;-76
2022/11/02 05:52:03;;;;;;;15.65;3.10;;;;;;;;;;5071870;28;20811;-77
2022/11/02 05:54:30;;;;;;;12.13;3.10;;;;;;;;;;5079850;28;20778;-76
2022/11/02 05:56:56;;;;;;;12.13;2.60;;;;;;;;;;5073452;28;21017;-76
2022/11/02 05:59:22;;;;;;;12.82;2.95;;;;;;;;;;5089824;28;20425;-76
2022/11/02 06:01:48;;;;;;;12.57;3.10;;;;;;;;;;5083658;28;20427;-76
2022/11/02 06:04:15;;;;;;;15.60;2.90;;;;;;;;;;5069656;28;20792;-76
2022/11/02 06:06:41;;;;;;;12.60;3.25;;;;;;;;;;5090665;28;20409;-76
2022/11/02 06:09:07;;;;;;;10.88;2.90;;;;;;;;;;5074769;28;20909;-74
2022/11/02 06:11:33;;;;;;;11.68;2.88;;;;;;;;;;5067192;28;20545;-77
2022/11/02 06:13:59;;;;;;;10.30;2.85;;;;;;;;;;5090042;28;20810;-76
2022/11/02 06:16:25;;;;;;;9.52;2.58;;;;;;;;;;5053848;28;20434;-76
2022/11/02 06:18:51;;;;;;;11.57;2.73;;;;;;;;;;5074341;28;20405;-76
2022/11/02 06:21:17;;;;;;;12.50;2.85;;;;;;;;;;5073482;28;20424;-77
2022/11/02 06:23:46;;;;;;;9.18;2.45;;;;;;;;;;5090948;28;20429;-77
2022/11/02 06:26:12;;;;;;;10.20;2.70;;;;;;;;;;5087082;28;20417;-76
2022/11/02 06:28:38;;;;;;;13.48;2.85;;;;;;;;;;5083867;28;20490;-78
2022/11/02 06:31:04;;;;;;;11.32;3.20;;;;;;;;;;5068364;28;20434;-79
2022/11/02 06:33:30;;;;;;;10.55;3.10;;;;;;;;;;5071156;28;20461;-77
2022/11/02 06:35:56;;;;;;;13.20;3.47;;;;;;;;;;5070945;28;20501;-80
2022/11/02 06:38:22;;;;;;;12.43;2.97;;;10.90;99.90;;;;;;5089501;28;20502;-79
2022/11/02 06:41:05;;;;;;;13.98;3.00;;;11.00;99.90;;;;;;5087990;28;20418;-80
2022/11/02 06:43:32;;;;;;;11.05;3.00;;;;;;;;;;5091833;28;20420;-81
2022/11/02 06:45:58;;;;;;;10.43;2.67;;;;;;;;;;5087014;28;20414;-78
2022/11/02 06:48:25;;;;;;;10.38;2.67;;;;;;;;;;5075149;28;20394;-79
2022/11/02 06:50:56;;;;;;;14.95;3.28;;;;;;;;;;5069140;28;20436;-79
2022/11/02 06:53:23;;;;;;;12.55;3.47;;;;;;;;;;5065589;28;20434;-78
2022/11/02 06:55:56;;;;;;;10.30;3.25;;;;;;;;;;5086186;28;20449;-79
2022/11/02 06:58:23;;;;;;;15.95;3.30;;;;;;;;;;5089493;28;20917;-78
2022/11/02 07:00:50;;;;;;;13.30;3.35;;;;;;;;;;5073705;28;20413;-80
2022/11/02 07:03:16;;;;;;;14.50;3.63;;;;;;;;;;5090534;28;20495;-78
2022/11/02 07:05:42;;;;;;;12.07;2.80;;;;;;;;;;5086040;28;20418;-78
2022/11/02 07:08:08;;;;;;;12.25;2.83;;;;;;;;;;5072828;28;20420;-78
2022/11/02 07:10:34;;;;;;;13.80;2.63;;;;;;;;;;5087872;28;20789;-78
2022/11/02 07:13:01;;;;;;;13.68;2.78;;;;;;;;;;5068459;28;20425;-79
2022/11/02 07:15:27;;;;;;;18.80;3.05;;;;;;;;;;5090868;28;20819;-80
2022/11/02 07:17:54;;;;;;;12.53;2.27;;;;;;;;;;5054036;28;20438;-79
2022/11/02 07:20:20;;;;;;;10.95;2.05;;;;;;;;;;5087663;28;20467;-79
2022/11/02 07:22:54;;;;;;;9.20;2.25;;;11.40;99.90;;;;;;5085718;28;20425;-79
2022/11/02 07:25:21;;;;;;;9.53;1.63;;;;;;;;;;5072719;28;20417;-80
2022/11/02 07:27:47;;;;;;;6.43;1.85;;;;;;;;;;5080131;28;20434;-79
2022/11/02 07:30:13;;;;;;;9.18;1.88;;;;;;;;;;5079418;28;20492;-78
2022/11/02 07:32:40;;;;;;;13.02;2.70;;;11.20;99.90;;;;;;5074537;28;20420;-80
2022/11/02 07:35:07;;;;;;;11.02;2.47;;;;;;;;;;5055394;28;20430;-79
2022/11/02 07:37:33;;;;;;;9.70;2.38;;;;;;;;;;5088578;28;20421;-76
2022/11/02 07:39:59;;;;;;;10.97;1.83;;;;;;;;;;5089022;28;20968;-78
2022/11/02 07:42:25;;;;;;;11.95;2.10;;;;;;;;;;5086620;28;20771;-77
2022/11/02 07:44:51;;;;;;;11.85;2.75;;;;;;;;;;5073003;28;20755;-78
2022/11/02 07:47:18;;;;;;;9.52;1.90;;;;;;;;;;5073372;28;20898;-78
2022/11/02 07:49:44;;;;;;;8.75;2.00;;;;;;;;;;5071559;28;20487;-78
2022/11/02 07:52:10;;;;;;;8.20;1.95;;;;;;;;;;5085610;28;20483;-77
2022/11/02 07:54:36;;;;;;;8.47;1.80;;;;;;;;;;5051378;28;20442;-77
2022/11/02 07:57:02;;;;;;;7.55;2.00;;;;;;;;;;5070262;28;20969;-78
2022/11/02 07:59:28;;;;;;;8.25;2.13;;;;;;;;;;5052639;28;20462;-77
2022/11/02 08:01:54;;;;;;;12.45;2.03;;;;;;;;;;5090192;28;20447;-76
2022/11/02 08:04:20;;;;;;;7.80;2.00;;;;;;;;;;5070543;28;20428;-77
2022/11/02 08:06:46;;;;;;;8.07;1.80;;;;;;;;;;5063351;28;20420;-77
2022/11/02 08:09:14;;;;;;;8.90;1.95;;;;;;;;;;5083478;28;20418;-78
2022/11/02 08:11:40;;;;;;;11.80;1.95;;;;;;;;;;5070256;28;20431;-78
2022/11/02 08:14:07;;;;;;;7.22;1.65;;;;;;;;;;5073909;28;20498;-79
2022/11/02 08:16:33;;;;;;;8.10;1.83;;;;;;;;;;5088877;28;20479;-78
2022/11/02 08:18:59;;;;;;;9.80;1.80;;;;;;;;;;5078694;28;20507;-78
2022/11/02 08:21:25;;;;;;;8.98;2.30;;;;;;;;;;5089804;28;20986;-78
2022/11/02 08:23:52;;;;;;;7.88;1.52;;;;;;;;;;5071588;28;20906;-77
2022/11/02 08:26:18;;;;;;;6.40;1.63;;;;;;;;;;5074450;28;20422;-78
2022/11/02 08:28:45;;;;;;;10.18;1.60;;;;;;;;;;5061225;28;20509;-78
2022/11/02 08:31:16;;;;;;;6.80;1.67;;;12.10;99.90;;;;;;5070561;28;20968;-79
2022/11/02 08:33:42;;;;;;;7.60;1.70;;;;;;;;;;5067963;28;20427;-79
2022/11/02 08:36:09;;;;;;;7.97;1.50;;;;;;;;;;5067608;28;20524;-79
2022/11/02 08:38:35;;;;;;;7.80;1.75;;;;;;;;;;5085208;28;20497;-78
2022/11/02 08:41:01;;;;;;;6.82;1.63;;;;;;;;;;5071546;28;20415;-79
2022/11/02 08:43:27;;;;;;;8.82;1.70;;;;;;;;;;5071027;28;20505;-79
2022/11/02 08:45:57;;;;;;;7.95;1.88;;;11.80;99.90;;;;;;5075922;28;20422;-79
2022/11/02 08:48:23;;;;;;;8.43;2.13;;;;;;;;;;5084860;28;20424;-78
2022/11/02 08:50:50;;;;;;;5.53;1.70;;;;;;;;;;5056964;28;20427;-77
2022/11/02 08:53:16;;;;;;;9.30;1.95;;;11.80;99.90;;;;;;5072920;28;20438;-76
2022/11/02 08:55:42;;;;;;;10.63;2.00;;;;;;;;;;5077674;28;21024;-77
2022/11/02 08:58:08;;;;;;;7.77;1.80;;;;;;;;;;5078166;28;20459;-77
2022/11/02 09:00:35;;;;;;;7.70;1.70;;;;;;;;;;5068010;28;20410;-78
2022/11/02 09:03:04;;;;;;;8.02;2.00;;;;;;;;;;5069850;28;20916;-78
2022/11/02 09:05:38;;;;;;;7.82;1.67;;;;;;;;;;5055893;28;20473;-78
2022/11/02 09:08:05;;;;;;;9.95;2.28;;;;;;;;;;5071726;28;20459;-78
2022/11/02 09:10:32;;;;;;;10.23;2.13;;;;;;;;;;5071649;28;20962;-79
2022/11/02 09:12:59;;;;;;;9.32;1.80;;;;;;;;;;5086732;28;20416;-78
2022/11/02 09:15:26;;;;;;;12.60;2.37;;;;;;;;;;5089372;28;20417;-78
2022/11/02 09:17:55;;;;;;;11.25;2.13;;;;;;;;;;5073060;28;20421;-79
2022/11/02 09:20:21;;;;;;;9.75;1.98;;;;;;;;;;5089390;28;20769;-79
2022/11/02 09:22:48;;;;;;;10.35;2.17;;;;;;;;;;5092347;28;20414;-77
2022/11/02 09:25:15;;;;;;;9.30;2.20;;;12.90;99.90;;;;;;5072218;28;20417;-77
2022/11/02 09:27:41;;;;;;;9.77;2.20;;;13.20;99.90;;;;;;5089974;28;20450;-80
2022/11/02 09:30:08;;;;;;;9.20;2.10;;;13.10;99.90;;;;;;5072868;28;20489;-79
2022/11/02 09:32:35;;;;;;;7.80;2.30;;;;;;;;;;5092173;28;20505;-79
2022/11/02 09:35:05;;;;;;;9.90;1.90;;;13.20;99.90;;;;;;5077878;28;20487;-78
2022/11/02 09:37:32;;;;;;;8.35;1.83;;;;;;;;;;5073009;28;20934;-79
2022/11/02 09:40:01;;;;;;;9.27;2.20;;;;;;;;;;5088029;28;20912;-79
2022/11/02 09:42:36;;;;;;;8.32;1.83;;;;;;;;;;5070069;28;20509;-79
2022/11/02 09:45:06;;;;;;;9.10;1.95;;;13.50;99.90;;;;;;5072744;28;20418;-79
2022/11/02 09:47:43;;;;;;;12.02;2.22;;;13.70;99.90;;;;;;5066602;28;20438;-79
2022/11/02 09:50:16;;;;;;;10.23;1.92;;;13.50;99.90;;;;;;5091037;28;20409;-78
2022/11/02 09:52:43;;;;;;;9.83;2.00;;;;;;;;;;5086644;28;20426;-79
2022/11/02 09:55:12;;;;;;;7.97;2.33;;;;;;;;;;5086615;28;20425;-78
2022/11/02 09:57:42;;;;;;;10.55;1.98;;;13.90;99.90;;;;;;5071733;28;20456;-77
2022/11/02 10:00:12;;;;;;;7.65;1.90;;;;;;;;;;5081566;28;20501;-78
2022/11/02 10:02:55;;;;;;;9.70;2.00;;;;;;;;;;5068727;28;20422;-78
2022/11/02 10:05:24;;;;;;;10.00;2.20;;;;;;;;;;5063656;28;20457;-78
2022/11/02 10:07:56;;;;;;;10.20;2.05;;;;;;;;;;5081820;28;20441;-78
2022/11/02 10:10:49;;;;;;;9.45;2.50;;;13.50;99.90;;;;;;5089659;28;20806;-78
2022/11/02 10:13:18;;;;;;;10.40;2.10;;;;;;;;;;5088620;28;20425;-78
2022/11/02 10:15:51;;;;;;;10.65;2.10;;;13.50;99.90;;;;;;5071567;28;20948;-78
2022/11/02 10:18:23;;;;;;;9.50;2.10;;;;;;;;;;5085208;28;20940;-77
2022/11/02 10:20:57;;;;;;;7.82;2.08;;;13.70;99.90;;;;;;5078014;28;20413;-77
2022/11/02 10:23:26;;;;;;;12.90;2.50;;;;;;;;;;5083695;28;20428;-76
2022/11/02 10:25:52;;;;;;;10.27;2.53;;;;;;;;;;5086363;28;20418;-78
2022/11/02 10:28:22;;;;;;;10.67;2.10;;;;;;;;;;5067444;28;20469;-78
2022/11/02 10:30:49;;;;;;;9.77;1.90;;;14.10;99.90;;;;;;5087666;28;20425;-77
2022/11/02 10:33:16;;;;;;;8.80;2.00;;;;;;;;;;5089458;28;20424;-76
2022/11/02 10:35:56;;;;;;;7.78;1.75;;;;;;;;;;5071187;28;20422;-78
2022/11/02 10:38:28;;;;;;;10.77;2.30;;;;;;;;;;5086103;28;20500;-76
2022/11/02 10:41:16;;;;;;;9.50;1.95;;;13.90;99.90;;;;;;5087229;28;20428;-77
2022/11/02 10:43:48;;;;;;;9.65;2.13;;;;;;;;;;5075203;28;20426;-78
2022/11/02 10:46:33;;;;;;;11.38;2.00;;;;;;;;;;5071724;28;20429;-77
2022/11/02 10:49:13;;;;;;;10.75;2.20;;;13.90;99.90;;;;;;5101571;28;20420;-77
2022/11/02 10:51:40;;;;;;;10.88;2.15;;;;;;;;;;5066024;28;20434;-79
2022/11/02 10:54:11;;;;;;;8.48;2.30;;;;;;;;;;5073101;28;20425;-78
2022/11/02 10:56:37;;;;;;;11.00;2.88;;;14.10;99.90;;;;;;5086530;28;20422;-78
2022/11/02 10:59:11;;;;;;;7.57;2.03;;;;;;;;;;5085681;28;20421;-78
2022/11/02 11:01:37;;;;;;;13.43;2.65;;;;;;;;;;5063085;28;20501;-77
2022/11/02 11:04:04;;;;;;;9.52;1.98;;;;;;;;;;5054201;28;20436;-76
2022/11/02 11:06:38;;;;;;;8.18;2.00;;;;;;;;;;5068458;28;20445;-77
2022/11/02 11:09:06;;;;;;;9.88;2.10;;;;;;;;;;5072199;28;20417;-76
2022/11/02 11:11:36;;;;;;;7.88;2.17;;;14.50;99.90;;;;;;5086443;28;20421;-76
2022/11/02 11:14:14;;;;;;;9.30;1.70;;;14.00;99.90;;;;;;5074663;28;20431;-76
2022/11/02 11:16:45;;;;;;;10.40;1.80;;;14.30;99.90;;;;;;5102329;28;20409;-77
2022/11/02 11:19:22;;;;;;;10.13;2.10;;;;;;;;;;5090787;28;20502;-80
2022/11/02 11:21:49;;;;;;;6.03;1.57;;;14.30;99.90;;;;;;5068633;28;20418;-80
2022/11/02 11:24:23;;;;;;;6.38;1.83;;;14.30;99.90;;;;;;5055243;28;20417;-82
2022/11/02 11:27:16;;;;;;;12.95;2.13;;;14.10;99.90;;;;;;5070062;28;20425;-82
2022/11/02 11:29:54;;;;;;;6.93;1.58;;;14.50;99.90;;;;;;5079677;28;20442;-77
2022/11/02 11:32:22;;;;;;;7.25;1.83;;;;;;;;;;5068460;28;20772;-80
2022/11/02 11:34:57;;;;;;;8.87;2.13;;;;;;;;;;5079918;28;20977;-78
2022/11/02 11:37:26;;;;;;;8.35;2.05;;;;;;;;;;5077748;28;20484;-79
2022/11/02 11:39:58;;;;;;;9.75;1.70;;;;;;;;;;5075339;28;20414;-81
2022/11/02 11:42:26;;;;;;;8.43;1.80;;;;;;;;;;5081605;28;20770;-83
2022/11/02 11:44:55;;;;;;;7.65;1.85;;;;;;;;;;5079512;28;20988;-81
2022/11/02 11:47:37;;;;;;;10.20;1.70;;;15.10;99.90;;;;;;5087067;28;20510;-81
2022/11/02 11:50:15;;;;;;;7.88;1.90;;;15.20;99.90;;;;;;5084953;28;20430;-79
2022/11/02 11:52:41;;;;;;;8.70;1.98;;;15.30;99.90;;;;;;5080200;28;20462;-80
2022/11/02 11:55:24;;;;;;;7.97;1.58;;;14.90;99.90;;;;;;5084221;28;20418;-81
2022/11/02 11:58:35;;;;;;;6.63;1.98;;;15.00;99.90;;;;;;5080974;28;20462;-79
2022/11/02 12:01:08;;;;;;;9.68;1.73;;;14.90;99.90;;;;;;5071285;28;20466;-80
2022/11/02 12:03:50;;;;;;;10.10;1.83;;;;;;;;;;5092233;28;20517;-81
2022/11/02 12:06:23;;;;;;;8.13;1.80;;;15.20;99.90;;;;;;5089694;28;20423;-81
2022/11/02 12:09:02;;;;;;;8.77;2.08;;;;;;;;;;5111357;28;20414;-81
2022/11/02 12:11:51;;;;;;;9.27;1.65;;;;;;;;;;5098168;28;20437;-80
2022/11/02 12:14:39;;;;;;;10.18;1.63;;;15.00;99.90;;;;;;5069879;28;20921;-82
2022/11/02 12:17:11;;;;;;;7.00;1.90;;;;;;;;;;5083410;28;20419;-81
2022/11/02 12:19:56;;;;;;;10.65;2.17;;;;;;;;;;5071020;28;20825;-82
2022/11/02 12:23:01;;;;;;;6.85;1.70;;;15.20;99.90;;;;;;5077876;28;20956;-82
2022/11/02 12:25:30;;;;;;;8.20;1.83;;;;;;;;;;5055976;28;20398;-81
2022/11/02 12:27:56;;;;;;;7.60;1.77;;;;;;;;;;5086406;28;20475;-82
2022/11/02 12:30:27;;;;;;;8.45;2.05;;;15.40;99.90;;;;;;5085721;28;20955;-81
2022/11/02 12:33:16;;;;;;;6.53;1.63;;;15.60;99.90;;;;;;5081826;28;20404;-82
2022/11/02 12:35:45;;;;;;;7.90;1.60;;;;;;;;;;5097333;28;20406;-82
2022/11/02 12:38:38;;;;;;;7.25;1.60;;;15.40;99.90;;;;;;5071959;28;20507;-81
2022/11/02 12:41:07;;;;;;;10.53;2.20;;;;;;;;;;5085058;28;20483;-81
2022/11/02 12:44:08;;;;;;;8.90;2.15;;;15.40;99.90;;;;;;5062230;28;20408;-83
2022/11/02 12:46:47;;;;;;;10.33;2.00;;;15.50;99.90;;;;;;5055720;28;20486;-82
2022/11/02 12:49:32;;;;;;;9.02;1.88;;;;;;;;;;5064576;28;20724;-81
2022/11/02 12:52:17;;;;;;;9.63;1.95;;;;;;;;;;5090225;28;20433;-81
2022/11/02 12:54:46;;;;;;;8.05;1.58;;;;;;;;;;5089337;28;20426;-81
2022/11/02 12:57:16;;;;;;;10.65;2.10;;;15.30;99.90;;;;;;5095797;28;20421;-81
2022/11/02 12:59:43;;;;;;;10.18;2.20;;;15.10;99.90;;;;;;5087010;28;20413;-81
2022/11/02 13:02:41;;;;;;;7.07;1.60;;;15.30;99.90;;;;;;5072644;28;20497;-82
2022/11/02 13:05:22;;;;;;;12.63;2.15;;;15.20;99.90;;;;;;5094082;28;20849;-83
2022/11/02 13:08:09;;;;;;;8.25;2.03;;;14.90;99.90;;;;;;5087955;28;20418;-82
2022/11/02 13:10:35;;;;;;;9.17;2.10;;;;;;;;;;5096899;28;20522;-83
2022/11/02 13:13:02;;;;;;;9.88;2.00;;;;;;;;;;5095106;28;20390;-82
2022/11/02 13:15:33;;;;;;;9.90;2.05;;;14.70;99.90;;;;;;5083050;28;20838;-82
2022/11/02 13:18:01;;;;;;;10.25;2.30;;;;;;;;;;5063839;28;20420;-83
2022/11/02 13:20:30;;;;;;;8.27;1.90;;;14.70;99.90;;;;;;5077534;28;20414;-83
2022/11/02 13:23:10;;;;;;;10.30;2.13;;;14.70;99.90;;;;;;5095976;28;20386;-83
2022/11/02 13:25:43;;;;;;;10.90;2.00;;;14.70;99.90;;;;;;5059905;28;20977;-83
2022/11/02 13:28:15;;;;;;;9.77;2.10;;;;;;;;;;5075730;28;20433;-83
2022/11/02 13:30:43;;;;;;;8.75;1.83;;;;;;;;;;5074655;28;20449;-83
2022/11/02 13:33:20;;;;;;;8.27;2.20;;;14.80;99.90;;;;;;5094804;28;20441;-83
2022/11/02 13:35:49;;;;;;;11.85;2.13;;;;;;;;;;5086032;28;20421;-82
2022/11/02 13:38:16;;;;;;;8.70;1.50;;;;;;;;;;5066444;28;20887;-81
2022/11/02 13:40:47;;;;;;;12.13;2.03;;;14.70;99.90;;;;;;5083258;28;20415;-82
2022/11/02 13:43:47;;;;;;;10.18;1.70;;;14.70;99.90;;;;;;5076495;28;20401;-83
2022/11/02 13:46:13;;;;;;;7.70;1.75;;;;;;;;;;5059970;28;20400;-82
2022/11/02 13:48:48;;;;;;;11.60;2.22;;;14.60;99.90;;;;;;5068988;28;20431;-83
2022/11/02 13:51:37;;;;;;;10.38;2.05;;;14.90;99.90;;;;;;5088290;28;20456;-84
2022/11/02 13:54:12;;;;;;;7.82;1.63;;;;;;;;;;5078425;28;20937;-83
2022/11/02 13:56:38;;;;;;;9.27;1.92;;;14.80;99.90;;;;;;5075679;28;20420;-84
2022/11/02 13:59:16;;;;;;;11.90;2.33;;;14.80;99.90;;;;;;5077545;28;20398;-84
2022/11/02 14:01:44;;;;;;;10.75;2.00;;;14.70;99.90;;;;;;5089777;28;20422;-83
2022/11/02 14:04:13;;;;;;;9.63;1.90;;;14.60;99.90;;;;;;5100290;28;20421;-83
2022/11/02 14:06:58;;;;;;;8.75;2.17;;;14.70;99.90;;;;;;5081921;28;20431;-84
2022/11/02 14:09:41;;;;;;;7.88;2.00;;;14.70;99.90;;;;;;5074230;28;20421;-83
2022/11/02 14:12:21;;;;;;;10.30;2.10;;;14.70;99.90;;;;;;5079490;28;20427;-83
2022/11/02 14:15:17;;;;;;;9.45;2.13;;;;;;;;;;5076789;28;20776;-84
2022/11/02 14:17:52;;;;;;;10.50;2.37;;;;;;;;;;5079019;28;20410;-83
2022/11/02 14:20:34;;;;;;;8.85;2.00;;;;;;;;;;5082757;28;20444;-82
2022/11/02 14:23:17;;;;;;;10.32;2.13;;;;;;;;;;5094397;28;20409;-81
2022/11/02 14:25:51;;;;;;;8.90;1.95;;;14.50;99.90;;;;;;5073116;28;20454;-80
2022/11/02 14:28:24;;;;;;;10.63;2.40;;;;;;;;;;5087989;28;20914;-81
2022/11/02 14:31:02;;;;;;;11.23;2.15;;;;;;;;;;5086306;28;20497;-83
2022/11/02 14:33:44;;;;;;;13.07;2.15;;;;;;;;;;5071811;28;20410;-84
2022/11/02 14:36:16;;;;;;;8.68;2.08;;;;;;;;;;5088561;28;20436;-84
2022/11/02 14:38:42;;;;;;;13.52;2.55;;;;;;;;;;5098273;28;20931;-83